• Join FlightAware (Why Join?)
  • Login
  • US Flag GB Flag 
18:44 EDT


 

Airport Tracker/Info


-or-


 

Live Flight TrackerFlight Track Log ✈ SWA1841 ✈ 22-Apr-2013 ✈ KPHX - KHOU

Flight Track Log - Related Links

Times and Time Zones

All times are in EDT time to prevent confusion due to time zone crossing. See the SWA1841 flight status page for this flight to view local times or setup timezone preferences in your user account.

Time Position Orientation Groundspeed Altitude Reporting Facility
EDT Latitude Longitude Course Direction KTS MPH feet Rate Location/Type
17:34 33.4333 -112.0333 242° Southwest 177 204 1,900  Level Phoenix TRACON
17:34 33.4303 -112.0403 242° Southwest 150 173 2,300 1,560 Climbing Albuquerque Center
17:35 33.4103 -112.1044 250° West 204 235 4,100 2,700 Climbing Albuquerque Center
17:36 33.3561 -112.1319 203° Southwest 250 288 8,000 3,060 Climbing Albuquerque Center
17:37 33.3394 -112.0378 102° East 294 338 10,500 2,400 Climbing Albuquerque Center
17:38 33.3194 -111.9211 102° East 353 406 13,000 2,400 Climbing Albuquerque Center
17:39 33.2997 -111.8036 101° East 372 428 15,500 2,700 Climbing Albuquerque Center
17:40 33.2769 -111.6728 102° East 401 461 18,600 2,640 Climbing Albuquerque Center
17:41 33.2433 -111.5411 107° East 417 480 21,000 2,520 Climbing Albuquerque Center
17:42 33.2022 -111.3744 106° East 438 504 23,800 2,340 Climbing Albuquerque Center
17:43 33.1658 -111.2308 107° East 452 520 25,900 1,980 Climbing Albuquerque Center
17:44 33.1297 -111.0833 106° East 463 533 27,900 1,620 Climbing Albuquerque Center
17:45 33.0922 -110.9317 106° East 476 548 29,300 1,320 Climbing Albuquerque Center
17:46 33.0531 -110.7756 107° East 489 563 30,700 1,560 Climbing Albuquerque Center
17:47 33.0086 -110.6019 107° East 497 572 32,600 1,740 Climbing Albuquerque Center
17:48 32.9683 -110.4467 107° East 496 571 34,300 1,440 Climbing Albuquerque Center
17:50 32.9292 -110.2914 107° East 496 571 35,600 1,200 Climbing Albuquerque Center
17:51 32.8797 -110.1039 107° East 499 574 36,800 1,080 Climbing Albuquerque Center
17:52 32.8364 -109.9444 108° East 508 585 37,900 960 Climbing Albuquerque Center
17:53 32.7953 -109.7881 107° East 505 581 38,900 480 Climbing Albuquerque Center
17:54 32.7536 -109.6319 108° East 502 578 39,000  Climbing Albuquerque Center
17:55 32.7133 -109.4781 107° East 498 573 39,000  Level Albuquerque Center
17:56 32.6633 -109.2903 108° East 502 578 39,000  Level Albuquerque Center
17:57 32.6214 -109.1336 108° East 506 582 39,000  Level Albuquerque Center
17:58 32.5789 -108.9786 108° East 505 581 39,000  Level Albuquerque Center
17:59 32.5375 -108.8225 107° East 505 581 39,000  Level Albuquerque Center
18:00 32.4950 -108.6669 108° East 504 580 39,000  Level Albuquerque Center
18:01 32.4444 -108.4819 108° East 502 578 39,000  Level Albuquerque Center
18:02 32.4028 -108.3331 108° East 502 578 39,000 -60 Level Albuquerque Center
18:03 32.3606 -108.1761 108° East 503 579 38,900 -60 Descending Albuquerque Center
18:04 32.3158 -108.0186 109° East 507 583 38,900  Level Albuquerque Center
18:05 32.2633 -107.8300 108° East 507 583 39,000  Climbing Albuquerque Center
18:06 32.2189 -107.6731 108° East 508 585 39,000  Level Albuquerque Center
18:07 32.1750 -107.5156 108° East 510 587 39,000  Level Albuquerque Center
18:08 32.1294 -107.3575 109° East 514 592 39,000  Level Albuquerque Center
18:09 32.0856 -107.1997 108° East 514 592 39,000  Level Albuquerque Center
18:10 32.0414 -107.0419 108° East 513 590 39,000  Level Albuquerque Center
18:11 31.9858 -106.8542 109° East 512 589 39,000  Level Albuquerque Center
18:12 31.9400 -106.6975 109° East 511 588 39,000  Level Albuquerque Center
18:13 31.8931 -106.5403 109° East 510 587 39,000  Level Albuquerque Center
18:14 31.8447 -106.3836 110° East 511 588 39,000  Level Albuquerque Center
18:15 31.8078 -106.2203 105° East 514 592 39,000  Level Albuquerque Center
18:16 31.7889 -106.0553 98° East 512 589 39,000 -60 Level Albuquerque Center
18:17 31.7681 -105.8883 98° East 515 593 38,900  Descending Albuquerque Center
18:18 31.7433 -105.6858 98° East 521 600 39,000  Climbing Albuquerque Center
18:19 31.7225 -105.5133 98° East 531 611 39,000  Level Albuquerque Center
18:20 31.7014 -105.3389 98° East 537 618 39,000  Level Albuquerque Center
18:21 31.6800 -105.1669 98° East 533 613 39,000  Level Albuquerque Center
18:22 31.6578 -104.9922 98° East 537 618 39,000  Level Albuquerque Center
18:23 31.6364 -104.8189 98° East 536 617 39,000  Level Albuquerque Center
18:24 31.6153 -104.6444 98° East 536 617 39,000  Level Albuquerque Center
18:26 31.5914 -104.4697 99° East 540 621 39,000  Level Albuquerque Center
18:27 31.5683 -104.2950 99° East 541 623 39,000  Level Albuquerque Center
18:28 31.5408 -104.0856 99° East 542 624 39,000 -60 Level Albuquerque Center
18:29 31.5175 -103.9114 99° East 542 624 38,900  Descending Albuquerque Center
18:30 31.4925 -103.7283 99° East 542 624 39,000  Climbing Albuquerque Center
18:31 31.4683 -103.5550 99° East 541 623 39,000  Level Albuquerque Center
18:32 31.4461 -103.3817 99° East 540 621 39,000  Level Albuquerque Center
18:33 31.4250 -103.2083 98° East 540 621 39,000  Level Albuquerque Center
18:34 31.4019 -103.0347 99° East 539 620 39,000  Level Albuquerque Center
18:35 31.3808 -102.8633 98° East 537 618 39,000  Level Albuquerque Center
18:36 31.3539 -102.6567 99° East 536 617 39,000  Level Albuquerque Center
18:37 31.3336 -102.5000 99° East 543 625 39,000  Level Albuquerque Center
18:38 31.3114 -102.3253 98° East 547 629 39,000  Level Albuquerque Center
18:39 31.2886 -102.1542 99° East 540 621 39,000  Level Albuquerque Center
18:40 31.2606 -101.9486 99° East 538 619 39,000  Level Albuquerque Center
18:41 31.2386 -101.7750 98° East 537 618 39,000  Level Albuquerque Center
18:42 31.2156 -101.6028 99° East 536 617 39,000  Level Albuquerque Center
18:43 31.1997 -101.4992 100° East 538 619 39,000  Level Houston Center
18:44 31.1725 -101.3067 99° East 539 620 39,000  Level Houston Center
18:45 31.1494 -101.1347 99° East 538 619 39,000  Level Houston Center
18:46 31.1247 -100.9597 99° East 543 625 39,000  Level Houston Center
18:47 31.0997 -100.7881 100° East 539 620 39,000  Level Houston Center
18:48 31.0753 -100.6147 99° East 539 620 39,000  Level Houston Center
18:49 31.0447 -100.4061 100° East 541 623 39,000  Level Houston Center
18:50 31.0194 -100.2336 100° East 538 619 39,000  Level Houston Center
18:51 30.9925 -100.0594 100° East 542 624 39,000  Level Houston Center
18:52 30.9669 -99.8861 100° East 542 624 39,000  Level Houston Center
18:53 30.9411 -99.7125 100° East 543 625 39,000  Level Houston Center
18:54 30.9153 -99.5383 100° East 545 627 39,000  Level Houston Center
18:55 30.8869 -99.3653 101° East 545 627 39,000  Level Houston Center
18:56 30.8600 -99.1917 100° East 544 626 39,000  Level Houston Center
18:57 30.8303 -99.0094 101° East 539 620 39,000  Level Houston Center
18:58 30.7986 -98.8078 100° East 540 621 39,000  Level Houston Center
18:59 30.7811 -98.6325 97° East 541 623 39,000  Level Houston Center
19:00 30.7650 -98.4567 96° East 541 623 39,000 -480 Level Houston Center
19:01 30.7478 -98.2828 97° East 539 620 38,100 -1,020 Descending Houston Center
19:02 30.7319 -98.1108 96° East 533 613 36,900 -1,260 Descending Houston Center
19:03 30.7153 -97.9392 96° East 531 611 35,500 -1,260 Descending Houston Center
19:04 30.6983 -97.7708 97° East 522 601 34,400 -1,080 Descending Houston Center
19:05 30.6781 -97.5756 97° East 522 601 33,300 -1,500 Descending Houston Center
19:06 30.6561 -97.4122 99° East 514 592 31,400 -2,280 Descending Houston Center
19:07 30.6056 -97.2669 112° Southeast 489 563 28,700 -2,460 Descending Houston Center
19:08 30.5531 -97.1256 113° Southeast 477 549 26,400 -2,160 Descending Houston Center
19:09 30.5036 -96.9925 113° Southeast 453 521 24,300 -2,040 Descending Houston Center
19:11 30.4553 -96.8642 114° Southeast 436 502 22,300 -1,980 Descending Houston Center
19:12 30.4092 -96.7394 113° Southeast 421 484 20,300 -2,220 Descending Houston Center
19:13 30.3564 -96.6011 114° Southeast 403 464 17,800 -2,280 Descending Houston Center
19:14 30.3125 -96.4853 114° Southeast 392 451 15,700 -2,040 Descending Houston Center
19:15 30.2683 -96.3711 114° Southeast 387 445 13,600 -1,980 Descending Houston Center
19:16 30.2269 -96.2606 113° Southeast 374 430 11,700 -1,800 Descending Houston Center
19:16 30.2019 -96.2111 120° Southeast 359 413 11,000 -720 Descending Houston Center
19:17 30.1611 -96.1828 149° Southeast 346 398 11,000  Level Houston Center
19:17 30.1178 -96.1600 156° South 336 387 11,000 -120 Level Houston Center
19:18 30.0800 -96.1394 155° Southeast 335 386 10,900  Descending Houston Center
19:18 30.0297 -96.1122 155° Southeast 337 388 11,000  Climbing Houston Center
19:19 29.9950 -96.0933 155° Southeast 336 387 10,900  Descending Houston Center
19:19 29.9419 -96.0667 156° South 337 388 11,000  Climbing Houston Center
19:20 29.8911 -96.0392 155° Southeast 339 390 10,900  Descending Houston Center
19:20 29.8561 -96.0211 156° South 337 388 11,000  Climbing Houston Center
19:21 29.8075 -95.9931 153° Southeast 337 388 10,900  Descending Houston Center
19:21 29.7764 -95.9483 129° Southeast 313 360 11,000 60 Climbing Houston Center
19:22 29.7544 -95.9128 125° Southeast 318 366 11,000 -900 Level Houston Center
19:22 29.7300 -95.8742 126° Southeast 310 357 10,200 -1,380 Descending Houston Center
19:23 29.7028 -95.8342 128° Southeast 309 356 9,600 -1,320 Descending Houston Center
19:23 29.6794 -95.7983 127° Southeast 303 349 8,900 -1,500 Descending Houston Center
19:24 29.6531 -95.7569 126° Southeast 303 349 8,100 -1,380 Descending Houston Center
19:24 29.6400 -95.7117 108° East 292 336 7,500 -1,020 Descending Houston Center
19:25 29.6294 -95.6686 106° East 291 335 7,100 -1,140 Descending Houston Center
19:25 29.6178 -95.6253 107° East 272 313 6,400 -1,980 Descending Houston Center
19:26 29.6025 -95.5711 108° East 271 312 5,100 -1,680 Descending Houston Center
19:26 29.5956 -95.5439 106° East 261 300 4,700 -840 Descending Houston Center
19:27 29.5772 -95.4786 108° East 214 246 4,100 -780 Descending Houston Center
19:28 29.5656 -95.4339 107° East 219 252 3,400 -960 Descending Houston Center
19:28 29.5583 -95.4114 110° East 200 230 3,100 -900 Descending Houston Center
19:29 29.5567 -95.3769 93° East 205 236 2,500 -1,260 Descending Houston Center
19:29 29.5708 -95.3617 43° Northeast 180 207 1,800 -1,200 Descending Houston Center
19:30 29.5906 -95.3397 44° Northeast 182 209 1,300 -840 Descending Houston Center
19:30 29.6031 -95.3242 47° Northeast 141 162 1,000 -720 Descending Houston Center
19:31 29.6189 -95.3081 41° Northeast 160 184 600 -720 Descending Houston Center
19:31 29.6297 -95.2969 42° Northeast 135 155 300 27,480 Descending Houston Center
19:32 29.6489 -95.2753 44° Northeast 147 169 29,000 36,600 Climbing Houston Center
19:34 29.6454 -95.2789 54° Northeast  Level Estimated